createdAt,value
2022-12-15T00:00:41.767Z,955.69
2022-12-15T00:01:41.765Z,955.81
2022-12-15T00:02:41.892Z,955.84
2022-12-15T00:03:42.908Z,955.81
2022-12-15T00:04:41.891Z,955.67
2022-12-15T00:05:41.950Z,955.60
2022-12-15T00:06:41.996Z,955.60
2022-12-15T00:07:42.015Z,955.79
2022-12-15T00:08:42.096Z,955.98
2022-12-15T00:09:42.105Z,956.08
2022-12-15T00:10:42.788Z,955.97
2022-12-15T00:11:42.188Z,955.77
2022-12-15T00:12:42.231Z,955.72
2022-12-15T00:13:42.291Z,955.85
2022-12-15T00:14:54.830Z,956.04
2022-12-15T00:15:42.380Z,956.09
2022-12-15T00:16:42.390Z,955.82
2022-12-15T00:17:42.429Z,955.73
2022-12-15T00:18:42.490Z,955.95
2022-12-15T00:19:42.509Z,956.03
2022-12-15T00:20:43.332Z,955.93
2022-12-15T00:21:42.590Z,955.91
2022-12-15T00:22:42.664Z,956.01
2022-12-15T00:23:42.679Z,956.12
2022-12-15T00:24:42.746Z,956.18
2022-12-15T00:25:43.326Z,956.04
2022-12-15T00:26:42.803Z,955.97
2022-12-15T00:27:42.838Z,955.96
2022-12-15T00:28:43.817Z,956.07
2022-12-15T00:29:42.947Z,956.17
2022-12-15T00:30:42.965Z,956.16
2022-12-15T00:31:43.098Z,956.22
2022-12-15T00:32:43.823Z,956.17
2022-12-15T00:33:43.088Z,956.17
2022-12-15T00:34:43.158Z,956.13
2022-12-15T00:35:43.829Z,956.08
2022-12-15T00:36:43.247Z,956.01
2022-12-15T00:37:43.258Z,955.99
2022-12-15T00:38:43.295Z,956.00
2022-12-15T00:39:43.342Z,956.03
2022-12-15T00:40:43.407Z,956.02
2022-12-15T00:41:44.328Z,956.05
2022-12-15T00:42:43.464Z,956.10
2022-12-15T00:43:43.504Z,956.09
2022-12-15T00:44:43.546Z,956.08
2022-12-15T00:45:43.614Z,956.08
2022-12-15T00:46:43.686Z,956.11
2022-12-15T00:47:44.319Z,956.13
2022-12-15T00:48:43.713Z,956.13
2022-12-15T00:49:43.758Z,956.17
2022-12-15T00:50:43.813Z,956.25
2022-12-15T00:51:43.829Z,956.28
2022-12-15T00:52:43.899Z,956.28
2022-12-15T00:53:43.920Z,956.27
2022-12-15T00:54:43.950Z,956.28
2022-12-15T00:55:44.820Z,956.29
2022-12-15T00:56:44.041Z,956.32
2022-12-15T00:57:44.106Z,956.37
2022-12-15T00:58:44.116Z,956.36
2022-12-15T00:59:44.164Z,956.30
2022-12-15T01:00:44.209Z,956.32
2022-12-15T01:01:44.344Z,956.33
2022-12-15T01:02:44.444Z,956.37
2022-12-15T01:03:44.494Z,956.36
2022-12-15T01:04:44.373Z,956.41
2022-12-15T01:05:45.320Z,956.42
2022-12-15T01:06:44.447Z,956.44
2022-12-15T01:07:44.488Z,956.43
2022-12-15T01:08:44.550Z,956.44
2022-12-15T01:09:44.577Z,956.40
2022-12-15T01:10:45.322Z,956.41
2022-12-15T01:11:44.656Z,956.46
2022-12-15T01:12:44.726Z,956.42
2022-12-15T01:13:44.773Z,956.42
2022-12-15T01:14:44.777Z,956.43
2022-12-15T01:15:44.874Z,956.50
2022-12-15T01:16:45.834Z,956.51
2022-12-15T01:17:44.911Z,956.49
2022-12-15T01:18:44.968Z,956.56
2022-12-15T01:19:44.995Z,956.59
2022-12-15T01:20:45.035Z,956.55
2022-12-15T01:21:45.078Z,956.57
2022-12-15T01:22:45.140Z,956.55
2022-12-15T01:23:45.152Z,956.53
2022-12-15T01:24:45.232Z,956.61
2022-12-15T01:25:45.275Z,956.66
2022-12-15T01:26:45.275Z,956.70
2022-12-15T01:27:45.318Z,956.67
2022-12-15T01:28:45.370Z,956.72
2022-12-15T01:29:45.399Z,956.74
2022-12-15T01:30:45.480Z,956.74
2022-12-15T01:31:45.536Z,956.76
2022-12-15T01:32:46.343Z,956.78
2022-12-15T01:33:46.332Z,956.89
2022-12-15T01:34:45.609Z,956.91
2022-12-15T01:35:45.676Z,956.85
2022-12-15T01:36:45.706Z,956.87
2022-12-15T01:37:45.734Z,956.90
2022-12-15T01:38:50.708Z,956.94
2022-12-15T01:39:45.817Z,956.97
2022-12-15T01:40:45.891Z,956.91
2022-12-15T01:41:45.929Z,956.91
2022-12-15T01:42:45.946Z,956.85
2022-12-15T01:43:45.983Z,956.88
2022-12-15T01:44:46.022Z,956.87
2022-12-15T01:45:46.828Z,956.82
2022-12-15T01:46:46.220Z,956.83
2022-12-15T01:47:46.159Z,956.79
2022-12-15T01:48:46.201Z,956.83
2022-12-15T01:49:46.236Z,956.86
2022-12-15T01:50:46.274Z,956.92
2022-12-15T01:51:46.341Z,956.98
2022-12-15T01:52:46.411Z,956.96
2022-12-15T01:53:46.403Z,956.94
2022-12-15T01:54:48.536Z,956.92
2022-12-15T01:55:48.054Z,956.94
2022-12-15T01:56:46.529Z,956.92
2022-12-15T01:57:46.589Z,956.90
2022-12-15T01:58:46.611Z,956.97
2022-12-15T01:59:46.650Z,956.96
2022-12-15T02:00:46.739Z,956.96
2022-12-15T02:01:50.293Z,956.93
2022-12-15T02:02:47.447Z,956.98
2022-12-15T02:03:46.818Z,956.95
2022-12-15T02:04:46.853Z,956.92
2022-12-15T02:05:46.892Z,956.90
2022-12-15T02:06:46.974Z,956.93
2022-12-15T02:07:46.984Z,956.88
2022-12-15T02:08:47.841Z,956.92
2022-12-15T02:09:47.063Z,956.97
2022-12-15T02:10:47.106Z,956.95
2022-12-15T02:11:47.172Z,956.89
2022-12-15T02:12:47.206Z,956.94
2022-12-15T02:13:47.228Z,956.94
2022-12-15T02:14:47.832Z,956.96
2022-12-15T02:15:47.298Z,956.94
2022-12-15T02:16:47.433Z,956.94
2022-12-15T02:17:47.393Z,956.89
2022-12-15T02:18:47.432Z,956.89
2022-12-15T02:19:48.337Z,956.93
2022-12-15T02:20:47.542Z,956.97
2022-12-15T02:21:47.548Z,957.01
2022-12-15T02:22:47.602Z,957.03
2022-12-15T02:23:47.637Z,956.99
2022-12-15T02:24:49.606Z,957.00
2022-12-15T02:25:50.708Z,956.99
2022-12-15T02:26:47.757Z,957.00
2022-12-15T02:27:47.794Z,956.97
2022-12-15T02:28:47.843Z,957.03
2022-12-15T02:29:47.962Z,957.04
2022-12-15T02:30:47.921Z,957.00
2022-12-15T02:31:50.040Z,957.03
2022-12-15T02:32:48.828Z,957.08
2022-12-15T02:33:48.048Z,957.08
2022-12-15T02:34:48.114Z,957.04
2022-12-15T02:35:48.146Z,957.02
2022-12-15T02:36:48.163Z,957.01
2022-12-15T02:37:50.133Z,956.97
2022-12-15T02:38:48.246Z,956.97
2022-12-15T02:39:48.287Z,956.97
2022-12-15T02:40:48.364Z,956.96
2022-12-15T02:41:48.378Z,956.94
2022-12-15T02:42:48.433Z,956.96
2022-12-15T02:43:49.928Z,956.95
2022-12-15T02:44:48.489Z,956.95
2022-12-15T02:45:48.578Z,956.93
2022-12-15T02:46:48.575Z,957.00
2022-12-15T02:47:48.645Z,956.98
2022-12-15T02:48:48.652Z,957.01
2022-12-15T02:49:49.738Z,957.03
2022-12-15T02:50:49.336Z,957.03
2022-12-15T02:51:48.788Z,957.03
2022-12-15T02:52:48.825Z,957.06
2022-12-15T02:53:48.875Z,957.06
2022-12-15T02:54:48.923Z,957.08
2022-12-15T02:55:50.373Z,957.11
2022-12-15T02:56:48.985Z,957.09
2022-12-15T02:57:49.047Z,957.07
2022-12-15T02:58:49.065Z,957.07
2022-12-15T02:59:49.134Z,957.09
2022-12-15T03:00:49.194Z,957.10
2022-12-15T03:01:49.813Z,957.07
2022-12-15T03:02:49.352Z,957.07
2022-12-15T03:03:49.279Z,957.08
2022-12-15T03:04:49.341Z,957.10
2022-12-15T03:05:49.387Z,957.07
2022-12-15T03:06:50.330Z,957.06
2022-12-15T03:07:49.598Z,957.11
2022-12-15T03:08:49.488Z,957.12
2022-12-15T03:09:49.517Z,957.07
2022-12-15T03:10:49.585Z,957.11
2022-12-15T03:11:49.602Z,957.07
2022-12-15T03:12:50.336Z,957.06
2022-12-15T03:13:49.925Z,957.06
2022-12-15T03:14:49.757Z,957.08
2022-12-15T03:15:50.341Z,957.07
2022-12-15T03:16:49.907Z,957.08
2022-12-15T03:17:49.870Z,957.06
2022-12-15T03:18:50.840Z,957.08
2022-12-15T03:19:50.051Z,957.09
2022-12-15T03:20:49.971Z,957.07
2022-12-15T03:21:50.023Z,957.06
2022-12-15T03:22:50.092Z,957.14
2022-12-15T03:23:50.102Z,957.14
2022-12-15T03:24:50.150Z,957.14
2022-12-15T03:25:50.184Z,957.13
2022-12-15T03:26:50.318Z,957.15
2022-12-15T03:27:50.307Z,957.14
2022-12-15T03:28:50.369Z,957.15
2022-12-15T03:29:50.344Z,957.17
2022-12-15T03:30:50.812Z,957.20
2022-12-15T03:31:50.532Z,957.17
2022-12-15T03:32:50.478Z,957.16
2022-12-15T03:33:50.546Z,957.13
2022-12-15T03:34:50.583Z,957.07
2022-12-15T03:35:50.623Z,957.07
2022-12-15T03:36:50.643Z,957.08
2022-12-15T03:37:50.692Z,957.06
2022-12-15T03:38:50.715Z,957.09
2022-12-15T03:39:50.758Z,957.12
2022-12-15T03:40:50.800Z,957.15
2022-12-15T03:41:50.880Z,957.15
2022-12-15T03:42:50.918Z,957.16
2022-12-15T03:43:50.924Z,957.17
2022-12-15T03:44:50.992Z,957.21
2022-12-15T03:45:51.052Z,957.22
2022-12-15T03:46:51.074Z,957.23
2022-12-15T03:47:51.836Z,957.24
2022-12-15T03:48:51.159Z,957.30
2022-12-15T03:49:51.840Z,957.33
2022-12-15T03:50:51.212Z,957.33
2022-12-15T03:51:51.249Z,957.32
2022-12-15T03:52:51.300Z,957.28
2022-12-15T03:53:51.363Z,957.35
2022-12-15T03:54:51.374Z,957.31
2022-12-15T03:55:51.417Z,957.34
2022-12-15T03:56:51.470Z,957.32
2022-12-15T03:57:51.521Z,957.28
2022-12-15T03:58:51.554Z,957.29
2022-12-15T03:59:52.340Z,957.31
2022-12-15T04:00:51.626Z,957.30
2022-12-15T04:01:51.784Z,957.29
2022-12-15T04:02:51.953Z,957.27
2022-12-15T04:03:54.307Z,957.30
2022-12-15T04:04:51.789Z,957.34
2022-12-15T04:05:52.335Z,957.32
2022-12-15T04:06:51.904Z,957.34
2022-12-15T04:07:51.924Z,957.37
2022-12-15T04:08:51.960Z,957.43
2022-12-15T04:09:52.024Z,957.44
2022-12-15T04:10:52.836Z,957.43
2022-12-15T04:11:52.087Z,957.43
2022-12-15T04:12:52.131Z,957.41
2022-12-15T04:13:52.187Z,957.44
2022-12-15T04:14:52.232Z,957.43
2022-12-15T04:15:52.283Z,957.45
2022-12-15T04:16:52.890Z,957.42
2022-12-15T04:17:52.328Z,957.41
2022-12-15T04:18:52.379Z,957.41
2022-12-15T04:19:52.418Z,957.46
2022-12-15T04:20:52.536Z,957.45
2022-12-15T04:21:52.513Z,957.43
2022-12-15T04:22:52.547Z,957.41
2022-12-15T04:23:52.582Z,957.45
2022-12-15T04:24:52.618Z,957.51
2022-12-15T04:25:52.688Z,957.50
2022-12-15T04:26:52.698Z,957.52
2022-12-15T04:27:54.807Z,957.52
2022-12-15T04:28:53.343Z,957.52
2022-12-15T04:29:52.828Z,957.51
2022-12-15T04:30:52.934Z,957.47
2022-12-15T04:31:52.911Z,957.40
2022-12-15T04:32:52.944Z,957.36
2022-12-15T04:33:52.994Z,957.34
2022-12-15T04:34:53.841Z,957.32
2022-12-15T04:35:53.110Z,957.31
2022-12-15T04:36:53.119Z,957.33
2022-12-15T04:37:53.187Z,957.31
2022-12-15T04:38:53.200Z,957.31
2022-12-15T04:39:53.259Z,957.33
2022-12-15T04:40:53.837Z,957.33
2022-12-15T04:41:53.837Z,957.35
2022-12-15T04:42:53.357Z,957.36
2022-12-15T04:43:53.433Z,957.41
2022-12-15T04:44:53.444Z,957.45
2022-12-15T04:45:53.528Z,957.45
2022-12-15T04:46:53.519Z,957.46
2022-12-15T04:47:53.560Z,957.45
2022-12-15T04:48:53.631Z,957.47
2022-12-15T04:49:53.641Z,957.48
2022-12-15T04:50:53.686Z,957.46
2022-12-15T04:51:53.731Z,957.51
2022-12-15T04:52:53.776Z,957.53
2022-12-15T04:53:55.529Z,957.53
2022-12-15T04:54:53.874Z,957.54
2022-12-15T04:55:53.894Z,957.55
2022-12-15T04:56:53.925Z,957.58
2022-12-15T04:57:54.843Z,957.59
2022-12-15T04:58:54.021Z,957.56
2022-12-15T05:00:07.098Z,957.57
2022-12-15T05:00:54.094Z,957.63
2022-12-15T05:01:54.253Z,957.60
2022-12-15T05:02:54.206Z,957.66
2022-12-15T05:03:54.283Z,957.64
2022-12-15T05:04:54.257Z,957.65
2022-12-15T05:05:54.304Z,957.66
2022-12-15T05:06:54.352Z,957.69
2022-12-15T05:07:54.387Z,957.70
2022-12-15T05:08:54.466Z,957.68
2022-12-15T05:09:58.421Z,957.67
2022-12-15T05:10:54.508Z,957.67
2022-12-15T05:11:54.547Z,957.71
2022-12-15T05:12:54.598Z,957.72
2022-12-15T05:13:54.651Z,957.72
2022-12-15T05:14:54.696Z,957.73
2022-12-15T05:15:54.802Z,957.79
2022-12-15T05:16:54.823Z,957.82
2022-12-15T05:17:54.791Z,957.83
2022-12-15T05:18:54.840Z,957.78
2022-12-15T05:19:54.887Z,957.79
2022-12-15T05:20:54.951Z,957.82
2022-12-15T05:21:54.958Z,957.80
2022-12-15T05:22:55.002Z,957.81
2022-12-15T05:23:55.037Z,957.75
2022-12-15T05:24:55.085Z,957.74
2022-12-15T05:25:55.156Z,957.74
2022-12-15T05:26:55.169Z,957.71
2022-12-15T05:27:55.222Z,957.63
2022-12-15T05:28:55.242Z,957.61
2022-12-15T05:29:55.287Z,957.62
2022-12-15T05:30:55.369Z,957.57
2022-12-15T05:31:55.377Z,957.60
2022-12-15T05:32:55.437Z,957.60
2022-12-15T05:33:58.290Z,957.56
2022-12-15T05:34:55.529Z,957.59
2022-12-15T05:35:56.378Z,957.55
2022-12-15T05:36:55.584Z,957.60
2022-12-15T05:37:55.627Z,957.64
2022-12-15T05:38:56.379Z,957.69
2022-12-15T05:39:55.732Z,957.75
2022-12-15T05:40:55.733Z,957.75
2022-12-15T05:41:55.783Z,957.78
2022-12-15T05:42:55.876Z,957.76
2022-12-15T05:43:55.857Z,957.86
2022-12-15T05:44:56.885Z,957.88
2022-12-15T05:45:56.922Z,957.91
2022-12-15T05:46:55.991Z,957.95
2022-12-15T05:47:56.041Z,957.96
2022-12-15T05:48:56.070Z,957.92
2022-12-15T05:49:56.106Z,957.99
2022-12-15T05:50:56.185Z,957.98
2022-12-15T05:51:56.215Z,957.99
2022-12-15T05:52:56.227Z,957.98
2022-12-15T05:53:56.268Z,957.93
2022-12-15T05:54:56.318Z,957.98
2022-12-15T05:55:56.386Z,957.98
2022-12-15T05:56:56.396Z,957.99
2022-12-15T05:57:56.440Z,957.99
2022-12-15T05:58:56.474Z,958.05
2022-12-15T05:59:56.514Z,958.09
2022-12-15T06:00:56.592Z,958.13
2022-12-15T06:01:56.625Z,958.13
2022-12-15T06:02:56.709Z,958.13
2022-12-15T06:03:56.673Z,958.15
2022-12-15T06:04:56.786Z,958.11
2022-12-15T06:05:56.849Z,958.09
2022-12-15T06:06:56.839Z,958.06
2022-12-15T06:07:56.849Z,958.05
2022-12-15T06:08:56.878Z,958.00
2022-12-15T06:09:56.921Z,958.01
2022-12-15T06:10:56.969Z,958.06
2022-12-15T06:11:57.040Z,958.05
2022-12-15T06:12:57.050Z,958.04
2022-12-15T06:13:57.890Z,958.08
2022-12-15T06:14:57.138Z,958.02
2022-12-15T06:15:57.215Z,958.02
2022-12-15T06:16:57.313Z,957.99
2022-12-15T06:17:57.262Z,958.01
2022-12-15T06:18:57.884Z,957.96
2022-12-15T06:19:57.882Z,957.99
2022-12-15T06:20:57.890Z,957.96
2022-12-15T06:21:57.449Z,957.91
2022-12-15T06:22:57.456Z,957.97
2022-12-15T06:23:57.502Z,957.97
2022-12-15T06:24:57.534Z,957.98
2022-12-15T06:25:58.394Z,957.96
2022-12-15T06:26:57.651Z,958.00
2022-12-15T06:28:01.742Z,958.00
2022-12-15T06:28:57.693Z,958.01
2022-12-15T06:29:57.738Z,957.99
2022-12-15T06:30:57.813Z,958.06
2022-12-15T06:31:57.890Z,958.03
2022-12-15T06:32:57.864Z,958.04
2022-12-15T06:34:02.069Z,958.03
2022-12-15T06:34:57.978Z,958.02
2022-12-15T06:35:57.984Z,958.04
2022-12-15T06:36:58.023Z,958.03
2022-12-15T06:37:58.070Z,957.98
2022-12-15T06:38:58.137Z,957.99
2022-12-15T06:39:58.151Z,957.97
2022-12-15T06:40:58.192Z,957.97
2022-12-15T06:41:58.224Z,958.00
2022-12-15T06:42:58.281Z,958.00
2022-12-15T06:43:58.343Z,957.98
2022-12-15T06:44:58.350Z,957.96
2022-12-15T06:45:58.398Z,958.00
2022-12-15T06:46:58.460Z,958.02
2022-12-15T06:48:01.557Z,958.00
2022-12-15T06:48:58.563Z,957.99
2022-12-15T06:49:58.552Z,957.99
2022-12-15T06:50:59.389Z,957.98
2022-12-15T06:51:58.673Z,958.00
2022-12-15T06:52:58.672Z,958.00
2022-12-15T06:53:59.382Z,958.01
2022-12-15T06:54:58.752Z,958.01
2022-12-15T06:55:58.794Z,958.00
2022-12-15T06:56:58.869Z,957.99
2022-12-15T06:57:58.876Z,958.00
2022-12-15T06:58:58.941Z,957.98
2022-12-15T06:59:58.957Z,958.06
2022-12-15T07:00:59.029Z,958.07
2022-12-15T07:01:59.164Z,958.13
2022-12-15T07:02:59.332Z,958.15
2022-12-15T07:03:59.437Z,958.16
2022-12-15T07:04:59.160Z,958.21
2022-12-15T07:05:59.212Z,958.16
2022-12-15T07:06:59.282Z,958.17
2022-12-15T07:07:59.282Z,958.11
2022-12-15T07:08:59.323Z,958.07
2022-12-15T07:09:59.379Z,958.10
2022-12-15T07:11:00.393Z,958.10
2022-12-15T07:11:59.483Z,958.08
2022-12-15T07:12:59.493Z,958.09
2022-12-15T07:13:59.530Z,958.09
2022-12-15T07:14:59.593Z,958.14
2022-12-15T07:15:59.657Z,958.16
2022-12-15T07:16:59.680Z,958.11
2022-12-15T07:17:59.693Z,958.09
2022-12-15T07:18:59.738Z,958.09
2022-12-15T07:19:59.809Z,958.12
2022-12-15T07:21:00.394Z,958.17
2022-12-15T07:21:59.850Z,958.21
2022-12-15T07:23:00.888Z,958.19
2022-12-15T07:27:11.548Z,958.25
2022-12-15T07:28:11.575Z,958.30
2022-12-15T07:29:11.610Z,958.30
2022-12-15T07:30:12.487Z,958.33
2022-12-15T07:31:11.740Z,958.28
2022-12-15T07:32:11.768Z,958.34
2022-12-15T07:33:11.778Z,958.34
2022-12-15T07:34:11.852Z,958.33
2022-12-15T07:35:11.850Z,958.34
2022-12-15T07:36:11.894Z,958.30
2022-12-15T07:37:11.953Z,958.33
2022-12-15T07:38:11.973Z,958.39
2022-12-15T07:39:12.067Z,958.45
2022-12-15T07:40:12.077Z,958.50
2022-12-15T07:41:12.129Z,958.51
2022-12-15T07:43:53.273Z,958.54
2022-12-15T07:44:53.259Z,958.56
2022-12-15T07:45:53.929Z,958.61
2022-12-15T07:46:53.358Z,958.60
2022-12-15T07:47:53.378Z,958.61
2022-12-15T07:48:53.379Z,958.64
2022-12-15T07:49:53.521Z,958.67
2022-12-15T07:50:53.521Z,958.68
2022-12-15T07:51:54.389Z,958.65
2022-12-15T07:52:53.565Z,958.76
2022-12-15T07:53:53.641Z,958.78
2022-12-15T07:54:53.760Z,958.81
2022-12-15T07:56:07.036Z,958.80
2022-12-15T07:56:53.739Z,958.82
2022-12-15T07:57:53.782Z,958.88
2022-12-15T07:58:53.861Z,958.92
2022-12-15T07:59:53.884Z,958.96
2022-12-15T08:00:54.916Z,959.01
2022-12-15T08:01:54.134Z,959.01
2022-12-15T08:02:55.027Z,958.95
2022-12-15T08:03:54.121Z,958.98
2022-12-15T08:04:54.095Z,958.97
2022-12-15T08:05:56.622Z,958.99
2022-12-15T08:06:54.851Z,958.97
2022-12-15T08:07:54.166Z,958.90
2022-12-15T08:08:54.874Z,958.87
2022-12-15T08:09:54.901Z,958.91
2022-12-15T08:10:54.865Z,958.90
2022-12-15T08:11:54.445Z,958.93
2022-12-15T08:12:54.413Z,958.93
2022-12-15T08:14:03.447Z,958.92
2022-12-15T08:14:54.472Z,958.90
2022-12-15T08:15:55.401Z,958.87
2022-12-15T08:16:54.683Z,958.83
2022-12-15T08:17:54.565Z,958.83
2022-12-15T08:18:54.655Z,958.85
2022-12-15T08:19:58.740Z,958.81
2022-12-15T08:20:54.709Z,958.81
2022-12-15T08:21:54.753Z,958.87
2022-12-15T08:22:54.775Z,959.01
2022-12-15T08:23:54.865Z,959.07
2022-12-15T08:24:54.891Z,959.09
2022-12-15T08:25:54.997Z,959.07
2022-12-15T08:26:54.966Z,958.99
2022-12-15T08:27:55.859Z,958.94
2022-12-15T08:28:55.050Z,958.94
2022-12-15T08:29:55.097Z,959.02
2022-12-15T08:30:55.208Z,958.99
2022-12-15T08:31:55.896Z,959.00
2022-12-15T08:32:55.871Z,959.03
2022-12-15T08:33:55.260Z,958.99
2022-12-15T08:34:55.839Z,958.91
2022-12-15T08:35:57.146Z,958.90
2022-12-15T08:36:55.388Z,958.93
2022-12-15T08:37:55.528Z,958.94
2022-12-15T08:38:56.375Z,958.91
2022-12-15T09:53:55.810Z,958.82
2022-12-15T10:59:34.132Z,958.38
2022-12-15T11:00:34.727Z,958.38
2022-12-15T11:01:34.307Z,958.35
2022-12-15T11:02:34.881Z,958.30
2022-12-15T11:03:34.566Z,958.26
2022-12-15T11:04:35.249Z,958.22
2022-12-15T11:05:35.233Z,958.16
2022-12-15T11:06:34.398Z,958.12
2022-12-15T11:07:35.237Z,958.09
2022-12-15T11:08:34.442Z,958.02
2022-12-15T11:09:35.233Z,957.98
2022-12-15T11:10:35.228Z,958.02
2022-12-15T11:11:34.580Z,958.02
2022-12-15T11:12:34.597Z,957.99
2022-12-15T11:13:35.213Z,957.99
2022-12-15T11:14:34.702Z,957.95
2022-12-15T11:15:35.318Z,957.94
2022-12-15T11:16:35.722Z,957.89
2022-12-15T11:17:34.792Z,957.87
2022-12-15T11:18:34.848Z,957.93
2022-12-15T11:19:34.912Z,957.93
2022-12-15T11:20:35.729Z,957.93
2022-12-15T11:21:34.966Z,957.95
2022-12-15T11:22:35.919Z,957.96
2022-12-15T11:23:35.561Z,957.98
2022-12-15T11:24:35.736Z,957.96
2022-12-15T11:25:35.735Z,957.97
2022-12-15T11:26:35.728Z,957.94
2022-12-15T11:27:35.231Z,957.90
2022-12-15T11:28:35.249Z,957.90
2022-12-15T11:29:35.293Z,957.88
2022-12-15T11:30:36.224Z,957.90
2022-12-15T11:31:35.385Z,957.86
2022-12-15T11:32:36.227Z,957.90
2022-12-15T11:33:35.752Z,957.92
2022-12-15T11:34:35.565Z,957.88
2022-12-15T11:35:36.228Z,957.85
2022-12-15T11:36:36.228Z,957.86
2022-12-15T11:37:36.874Z,957.83
2022-12-15T11:38:36.264Z,957.86
2022-12-15T11:39:35.724Z,957.85
2022-12-15T11:40:36.732Z,957.80
2022-12-15T11:41:36.722Z,957.80
2022-12-15T11:42:35.853Z,957.82
2022-12-15T11:43:36.564Z,957.86
2022-12-15T11:44:35.901Z,957.84
2022-12-15T11:45:36.734Z,957.87
2022-12-15T11:46:36.731Z,957.83
2022-12-15T11:47:36.749Z,957.82
2022-12-15T11:48:36.134Z,957.81
2022-12-15T11:49:40.981Z,957.82
2022-12-15T11:50:36.154Z,957.82
2022-12-15T11:51:36.737Z,957.84
2022-12-15T11:52:36.308Z,957.79
2022-12-15T11:53:36.544Z,957.76
2022-12-15T11:54:36.340Z,957.77
2022-12-15T11:55:41.167Z,957.68
2022-12-15T11:56:36.391Z,957.67
2022-12-15T11:57:37.233Z,957.64
2022-12-15T11:58:37.231Z,957.61
2022-12-15T11:59:36.535Z,957.61
2022-12-15T12:00:36.568Z,957.59
2022-12-15T12:01:36.640Z,957.63
2022-12-15T12:02:37.375Z,957.57
2022-12-15T12:03:37.234Z,957.58
2022-12-15T12:04:36.782Z,957.56
2022-12-15T12:05:37.762Z,957.56
2022-12-15T12:27:38.969Z,957.31
2022-12-15T12:28:38.928Z,957.30
2022-12-15T12:29:38.977Z,957.29
2022-12-15T12:30:39.005Z,957.28
2022-12-15T12:31:39.049Z,957.28
2022-12-15T12:32:39.116Z,957.25
2022-12-15T12:33:40.093Z,957.16
2022-12-15T12:34:39.163Z,957.19
2022-12-15T12:35:39.206Z,957.22
2022-12-15T12:36:39.259Z,957.21
2022-12-15T12:37:39.307Z,957.24
2022-12-15T12:53:06.317Z,957.03
2022-12-15T12:54:17.736Z,957.05
2022-12-15T12:55:09.636Z,957.02
2022-12-15T12:56:06.405Z,957.02
2022-12-15T12:57:06.439Z,957.00
2022-12-15T12:58:07.060Z,957.02
2022-12-15T12:59:06.527Z,957.01
2022-12-15T13:00:06.587Z,957.01
2022-12-15T13:01:06.734Z,956.99
2022-12-15T13:02:06.775Z,956.95
2022-12-15T13:03:06.690Z,956.91
2022-12-15T13:04:06.740Z,956.86
2022-12-15T13:05:06.793Z,956.85
2022-12-15T13:06:06.805Z,956.85
2022-12-15T13:07:12.796Z,956.87
2022-12-15T13:08:06.912Z,956.88
2022-12-15T13:09:06.928Z,956.86
2022-12-15T13:10:06.970Z,956.86
2022-12-15T13:11:07.004Z,956.81
2022-12-15T13:12:27.317Z,956.78
2022-12-15T13:13:07.130Z,956.75
2022-12-15T13:14:10.587Z,956.73
2022-12-15T13:15:07.176Z,956.71
2022-12-15T13:16:07.214Z,956.72
2022-12-15T13:20:26.978Z,956.70
2022-12-15T13:24:12.309Z,956.70
2022-12-15T13:25:12.317Z,956.71
2022-12-15T16:46:25.667Z,955.74
2022-12-15T16:47:25.639Z,955.70
2022-12-15T16:48:25.738Z,955.69
2022-12-15T16:49:26.239Z,955.68
2022-12-15T16:50:25.749Z,955.67
2022-12-15T16:51:26.742Z,955.65
2022-12-15T16:52:25.835Z,955.67
2022-12-15T16:53:25.848Z,955.66
2022-12-15T16:54:25.898Z,955.62
2022-12-15T16:55:25.958Z,955.61
2022-12-15T16:56:25.966Z,955.55
2022-12-15T16:57:26.000Z,955.54
2022-12-15T16:58:26.747Z,955.52
2022-12-15T16:59:34.631Z,955.48
2022-12-15T17:00:26.160Z,955.48
2022-12-15T17:01:26.284Z,955.47
2022-12-15T17:02:26.366Z,955.45
2022-12-15T17:03:26.881Z,955.48
2022-12-15T18:12:38.065Z,954.67
2022-12-15T18:13:39.146Z,954.66
2022-12-15T18:14:38.113Z,954.70
2022-12-15T18:15:39.065Z,954.67
2022-12-15T18:16:38.277Z,954.67
2022-12-15T18:17:38.236Z,954.65
2022-12-15T18:18:38.283Z,954.69
2022-12-15T18:19:38.326Z,954.57
2022-12-15T18:20:39.067Z,954.59
2022-12-15T18:21:38.373Z,954.54
2022-12-15T18:22:39.064Z,954.52
2022-12-15T18:23:38.437Z,954.51
2022-12-15T18:24:38.495Z,954.54
2022-12-15T18:25:38.519Z,954.51
2022-12-15T18:26:38.563Z,954.50
2022-12-15T18:27:38.594Z,954.50
2022-12-15T18:28:38.635Z,954.46
2022-12-15T18:29:38.712Z,954.46
2022-12-15T18:30:38.734Z,954.42
2022-12-15T18:31:38.817Z,954.43
2022-12-15T18:32:38.796Z,954.39
2022-12-15T18:33:38.838Z,954.36
2022-12-15T18:34:38.866Z,954.31
2022-12-15T18:35:38.941Z,954.35
2022-12-15T18:36:39.573Z,954.35
2022-12-15T18:37:39.573Z,954.32
2022-12-15T18:38:39.023Z,954.33
2022-12-15T18:39:39.086Z,954.31
2022-12-15T18:40:39.133Z,954.31
2022-12-15T18:41:40.078Z,954.36
2022-12-15T18:42:39.207Z,954.32
2022-12-15T18:43:39.231Z,954.32
2022-12-15T18:44:40.071Z,954.35
2022-12-15T18:45:40.074Z,954.38
2022-12-15T18:46:42.044Z,954.38
2022-12-15T18:47:39.432Z,954.38
2022-12-15T18:48:39.436Z,954.38
2022-12-15T18:49:40.075Z,954.38
2022-12-15T18:50:40.066Z,954.37
2022-12-15T18:51:40.069Z,954.34
2022-12-15T18:52:39.612Z,954.35
2022-12-15T18:53:39.630Z,954.40
2022-12-15T18:54:39.658Z,954.34
2022-12-15T18:55:40.571Z,954.37
2022-12-15T18:56:39.737Z,954.36
2022-12-15T18:57:39.827Z,954.38
2022-12-15T18:58:39.824Z,954.40
2022-12-15T18:59:39.855Z,954.36
2022-12-15T19:00:39.953Z,954.40
2022-12-15T19:01:40.070Z,954.41
2022-12-15T19:02:40.107Z,954.44
2022-12-15T19:03:40.028Z,954.42
2022-12-15T19:04:40.073Z,954.43
2022-12-15T19:05:40.145Z,954.47
2022-12-15T19:06:41.127Z,954.45
2022-12-15T19:07:40.186Z,954.45
2022-12-15T19:08:40.220Z,954.48
2022-12-15T19:09:40.271Z,954.47
2022-12-15T19:10:40.323Z,954.49
2022-12-15T19:11:40.374Z,954.49
2022-12-15T19:12:41.073Z,954.50
2022-12-15T19:13:40.444Z,954.49
2022-12-15T19:14:40.536Z,954.42
2022-12-15T19:15:40.521Z,954.44
2022-12-15T19:16:40.551Z,954.46
2022-12-15T19:17:40.582Z,954.46
2022-12-15T19:18:41.567Z,954.45
2022-12-15T19:19:40.656Z,954.47
2022-12-15T19:20:40.736Z,954.47
2022-12-15T19:21:40.739Z,954.42
2022-12-15T19:22:40.784Z,954.46
2022-12-15T19:23:40.823Z,954.49
2022-12-15T19:24:41.576Z,954.46
2022-12-15T19:25:40.929Z,954.46
2022-12-15T19:26:40.939Z,954.48
2022-12-15T19:27:40.981Z,954.45
2022-12-15T19:28:41.036Z,954.44
2022-12-15T19:29:41.062Z,954.45
2022-12-15T19:30:42.431Z,954.50
2022-12-15T19:31:41.158Z,954.44
2022-12-15T19:32:41.177Z,954.45
2022-12-15T19:33:41.247Z,954.47
2022-12-15T19:34:41.260Z,954.53
2022-12-15T19:35:41.322Z,954.49
2022-12-15T19:36:42.083Z,954.49
2022-12-15T19:37:41.368Z,954.48
2022-12-15T19:38:41.409Z,954.51
2022-12-15T19:39:41.448Z,954.52
2022-12-15T19:40:41.528Z,954.48
2022-12-15T19:41:41.536Z,954.55
2022-12-15T19:42:41.577Z,954.52
2022-12-15T19:43:41.617Z,954.57
2022-12-15T19:44:42.576Z,954.54
2022-12-15T19:45:41.782Z,954.54
2022-12-15T19:46:41.739Z,954.57
2022-12-15T19:47:41.776Z,954.53
2022-12-15T19:48:42.574Z,954.50
2022-12-15T19:49:41.851Z,954.50
2022-12-15T19:50:41.921Z,954.52
2022-12-15T19:51:42.571Z,954.54
2022-12-15T19:52:41.969Z,954.51
2022-12-15T19:53:42.037Z,954.56
2022-12-15T19:54:42.052Z,954.53
2022-12-15T19:55:42.151Z,954.53
2022-12-15T19:56:42.130Z,954.56
2022-12-15T19:57:42.170Z,954.57
2022-12-15T19:58:42.243Z,954.58
2022-12-15T19:59:42.251Z,954.55
2022-12-15T20:00:43.156Z,954.51
2022-12-15T20:01:42.446Z,954.51
2022-12-15T20:02:42.482Z,954.48